Time;durP1;ratioP1;P1;durP2;ratioP2;P2;SDS_P1;SDS_P2;PMS_P1;PMS_P2;Temp;Humidity;BMP_temperature;BMP_pressure;BME280_temperature;BME280_humidity;BME280_pressure;Samples;Min_cycle;Max_cycle;Signal;HPM_P1;HPM_P2
2023/07/22 00:04:32;;;;;;;;;;;23.20;52.20;;;;;;10311256;28;96789;-60
2023/07/22 00:09:34;;;;;;;;;;;23.20;52.20;;;;;;10332549;28;93286;-60
2023/07/22 00:14:39;;;;;;;;;;;23.10;52.20;;;;;;10332064;28;93459;-61
2023/07/22 00:19:40;;;;;;;;;;;23.10;52.30;;;;;;10331940;28;94437;-61
2023/07/22 00:24:42;;;;;;;;;;;23.10;52.30;;;;;;10332281;28;93400;-61
2023/07/22 00:29:44;;;;;;;;;;;23.10;52.40;;;;;;10330833;28;93656;-65
2023/07/22 00:34:46;;;;;;;;;;;23.00;52.30;;;;;;10332193;28;94371;-66
2023/07/22 00:39:48;;;;;;;;;;;23.00;52.40;;;;;;10332046;28;93765;-66
2023/07/22 00:44:50;;;;;;;;;;;23.00;52.50;;;;;;10329256;28;93469;-65
2023/07/22 00:49:52;;;;;;;;;;;23.00;52.50;;;;;;10331090;28;93203;-60
2023/07/22 00:54:55;;;;;;;;;;;23.00;52.60;;;;;;10328431;28;97031;-60
2023/07/22 00:59:56;;;;;;;;;;;23.00;52.60;;;;;;10331432;28;94397;-61
2023/07/22 01:04:58;;;;;;;;;;;22.90;52.60;;;;;;10330664;28;94423;-60
2023/07/22 01:10:00;;;;;;;;;;;22.90;52.70;;;;;;10329011;28;93439;-61
2023/07/22 01:15:03;;;;;;;;;;;22.90;52.60;;;;;;10330040;28;94380;-60
2023/07/22 01:20:06;;;;;;;;;;;22.90;52.60;;;;;;10329834;28;94421;-60
2023/07/22 01:25:08;;;;;;;;;;;22.90;52.70;;;;;;10330179;28;94631;-60
2023/07/22 01:30:10;;;;;;;;;;;22.90;52.60;;;;;;10332031;28;94022;-60
2023/07/22 01:35:12;;;;;;;;;;;22.90;52.70;;;;;;10330110;28;94324;-60
2023/07/22 01:40:14;;;;;;;;;;;22.90;52.60;;;;;;10329831;28;94356;-61
2023/07/22 01:45:15;;;;;;;;;;;22.90;52.70;;;;;;10325999;28;96912;-60
2023/07/22 01:50:18;;;;;;;;;;;22.90;52.70;;;;;;10328406;28;93461;-60
2023/07/22 01:55:20;;;;;;;;;;;22.80;52.80;;;;;;10312378;28;93398;-61
2023/07/22 02:00:22;;;;;;;;;;;22.80;52.80;;;;;;10328369;28;93664;-60
2023/07/22 02:05:24;;;;;;;;;;;22.80;52.80;;;;;;10327984;28;92520;-61
2023/07/22 02:10:26;;;;;;;;;;;22.80;52.90;;;;;;10327907;28;93446;-59
2023/07/22 02:15:28;;;;;;;;;;;22.80;53.00;;;;;;10328920;28;94119;-60
2023/07/22 02:20:30;;;;;;;;;;;22.80;52.90;;;;;;10328626;28;93814;-61
2023/07/22 02:25:31;;;;;;;;;;;22.80;53.10;;;;;;10327591;28;93232;-60
2023/07/22 02:30:34;;;;;;;;;;;22.80;52.90;;;;;;10328760;28;93387;-60
2023/07/22 02:35:36;;;;;;;;;;;22.80;53.00;;;;;;10325506;28;95818;-61
2023/07/22 02:40:38;;;;;;;;;;;22.70;53.00;;;;;;10327579;28;93437;-61
2023/07/22 02:45:40;;;;;;;;;;;22.70;53.10;;;;;;10327425;28;93487;-60
2023/07/22 02:50:41;;;;;;;;;;;22.70;53.20;;;;;;10326716;28;93516;-61
2023/07/22 02:55:43;;;;;;;;;;;22.60;53.10;;;;;;10309866;28;94435;-60
2023/07/22 03:00:45;;;;;;;;;;;22.70;53.20;;;;;;10326710;28;93825;-61
2023/07/22 03:05:47;;;;;;;;;;;22.60;53.20;;;;;;10327091;28;93104;-61
2023/07/22 03:10:49;;;;;;;;;;;22.70;53.30;;;;;;10328228;28;92516;-60
2023/07/22 03:15:51;;;;;;;;;;;22.60;53.30;;;;;;10327164;28;94455;-61
2023/07/22 03:20:53;;;;;;;;;;;22.60;53.40;;;;;;10308712;28;93512;-60
2023/07/22 03:25:55;;;;;;;;;;;22.70;53.40;;;;;;10323710;28;96925;-61
2023/07/22 03:30:57;;;;;;;;;;;22.60;53.40;;;;;;10326893;28;93349;-60
2023/07/22 03:35:59;;;;;;;;;;;22.60;53.40;;;;;;10333822;28;94192;-60
2023/07/22 03:41:01;;;;;;;;;;;22.70;53.40;;;;;;10334326;28;94479;-61
2023/07/22 03:46:03;;;;;;;;;;;22.60;53.50;;;;;;10333055;28;93787;-61
2023/07/22 03:51:05;;;;;;;;;;;22.70;53.70;;;;;;10332654;28;94586;-60
2023/07/22 03:56:23;;;;;;;;;;;22.60;53.60;;;;;;10332459;28;93436;-61
2023/07/22 04:01:26;;;;;;;;;;;22.60;53.50;;;;;;10314085;28;92824;-60
2023/07/22 04:06:27;;;;;;;;;;;22.70;53.60;;;;;;10333009;28;93440;-60
2023/07/22 04:11:30;;;;;;;;;;;22.60;53.60;;;;;;10332082;28;94418;-61
2023/07/22 04:16:32;;;;;;;;;;;22.70;53.80;;;;;;10330850;28;96827;-60
2023/07/22 04:21:33;;;;;;;;;;;22.70;53.80;;;;;;10331991;28;93414;-60
2023/07/22 04:26:35;;;;;;;;;;;22.70;53.90;;;;;;10331178;28;93418;-61
2023/07/22 04:31:37;;;;;;;;;;;22.70;54.00;;;;;;10331958;28;94590;-60
2023/07/22 04:36:39;;;;;;;;;;;22.70;54.00;;;;;;10331069;28;93520;-60
2023/07/22 04:41:41;;;;;;;;;;;22.60;53.90;;;;;;10332258;28;96853;-60
2023/07/22 04:51:57;;;;;;;;;;;22.70;54.10;;;;;;10248457;28;96636;-62
2023/07/22 04:56:59;;;;;;;;;;;22.70;54.20;;;;;;10231450;28;93527;-65
2023/07/22 05:02:01;;;;;;;;;;;22.70;54.00;;;;;;10249619;28;93120;-60
2023/07/22 05:07:03;;;;;;;;;;;22.70;54.10;;;;;;10229579;28;96924;-60
2023/07/22 05:12:05;;;;;;;;;;;22.70;54.10;;;;;;10249820;28;93447;-60
2023/07/22 05:17:06;;;;;;;;;;;22.70;54.10;;;;;;10249719;28;94764;-60
2023/07/22 05:22:08;;;;;;;;;;;22.70;54.30;;;;;;10248237;28;92790;-60
2023/07/22 05:27:10;;;;;;;;;;;22.70;54.20;;;;;;10231002;28;94520;-60
2023/07/22 05:32:11;;;;;;;;;;;22.70;54.20;;;;;;10247148;28;93465;-60
2023/07/22 05:37:32;;;;;;;;;;;22.70;54.20;;;;;;10233759;28;93850;-60
2023/07/22 05:42:34;;;;;;;;;;;22.70;54.30;;;;;;10247572;28;92730;-60
2023/07/22 05:47:35;;;;;;;;;;;22.70;55.20;;;;;;10247946;28;94399;-60
2023/07/22 05:52:37;;;;;;;;;;;22.70;54.20;;;;;;10297636;28;94939;-65
2023/07/22 05:57:39;;;;;;;;;;;22.70;54.30;;;;;;10326013;28;95780;-64
2023/07/22 06:02:41;;;;;;;;;;;22.70;54.30;;;;;;10328119;28;94616;-64
2023/07/22 06:07:43;;;;;;;;;;;22.70;54.40;;;;;;10285290;28;93310;-64
2023/07/22 06:12:45;;;;;;;;;;;22.70;54.50;;;;;;10246378;28;93448;-65
2023/07/22 06:17:46;;;;;;;;;;;22.70;54.50;;;;;;10246660;28;95039;-65
2023/07/22 06:22:49;;;;;;;;;;;22.70;54.60;;;;;;10262602;28;94600;-65
2023/07/22 06:27:51;;;;;;;;;;;22.70;54.50;;;;;;10246633;28;93411;-64
2023/07/22 06:32:53;;;;;;;;;;;22.80;54.70;;;;;;10248392;28;93691;-64
2023/07/22 06:37:54;;;;;;;;;;;22.80;54.70;;;;;;10246560;28;92507;-63
2023/07/22 06:42:56;;;;;;;;;;;22.80;54.80;;;;;;10262326;28;94377;-65
2023/07/22 06:47:58;;;;;;;;;;;22.90;54.80;;;;;;10259234;28;95570;-61
2023/07/22 06:53:00;;;;;;;;;;;22.90;54.80;;;;;;10310570;28;93491;-61
2023/07/22 06:58:02;;;;;;;;;;;22.90;54.80;;;;;;10327710;28;93616;-65
2023/07/22 07:03:03;;;;;;;;;;;22.90;54.90;;;;;;10325114;28;93455;-65
2023/07/22 07:08:05;;;;;;;;;;;22.80;54.90;;;;;;10332538;28;94483;-65
2023/07/22 07:13:07;;;;;;;;;;;22.90;55.10;;;;;;10334561;28;93890;-61
2023/07/22 07:18:09;;;;;;;;;;;22.90;55.10;;;;;;10317590;28;94124;-61
2023/07/22 07:23:13;;;;;;;;;;;22.90;55.10;;;;;;10334896;28;92750;-61
2023/07/22 07:28:14;;;;;;;;;;;22.80;55.20;;;;;;10334295;28;93068;-61
2023/07/22 07:33:16;;;;;;;;;;;22.80;55.20;;;;;;10316911;28;93859;-61
2023/07/22 07:38:18;;;;;;;;;;;22.90;55.40;;;;;;10313647;28;96161;-62
2023/07/22 07:43:20;;;;;;;;;;;22.80;55.40;;;;;;10333870;28;93415;-61
2023/07/22 07:48:22;;;;;;;;;;;22.80;55.40;;;;;;10332243;28;93643;-61
2023/07/22 07:53:24;;;;;;;;;;;22.80;55.60;;;;;;10334191;28;93475;-62
2023/07/22 07:58:25;;;;;;;;;;;22.80;55.60;;;;;;10333342;28;93509;-61
2023/07/22 08:03:27;;;;;;;;;;;22.80;55.80;;;;;;10333212;28;94028;-62
2023/07/22 08:08:29;;;;;;;;;;;22.80;56.90;;;;;;10332934;28;94655;-60
2023/07/22 08:13:31;;;;;;;;;;;22.80;57.20;;;;;;10334121;28;92692;-61
2023/07/22 08:18:33;;;;;;;;;;;22.70;57.30;;;;;;10332100;28;94164;-61
2023/07/22 08:23:36;;;;;;;;;;;22.60;58.90;;;;;;10332020;28;94600;-61
2023/07/22 08:28:38;;;;;;;;;;;22.70;58.70;;;;;;10311795;28;97525;-61
2023/07/22 08:33:40;;;;;;;;;;;22.70;58.90;;;;;;10314291;28;94386;-60
2023/07/22 08:38:43;;;;;;;;;;;22.80;59.30;;;;;;10331978;28;94657;-60
2023/07/22 08:43:47;;;;;;;;;;;22.80;59.40;;;;;;10331359;28;93443;-60
2023/07/22 08:48:53;;;;;;;;;;;22.90;59.40;;;;;;10330915;28;94387;-61
2023/07/22 08:53:56;;;;;;;;;;;22.90;59.60;;;;;;10331514;28;94370;-60
2023/07/22 08:59:12;;;;;;;;;;;22.90;59.40;;;;;;10330424;28;94584;-61
2023/07/22 09:04:14;;;;;;;;;;;22.90;59.10;;;;;;10326158;28;93102;-61
2023/07/22 09:09:16;;;;;;;;;;;22.90;58.70;;;;;;10326970;28;94418;-61
2023/07/22 09:14:19;;;;;;;;;;;22.80;58.50;;;;;;10308900;28;93382;-61
2023/07/22 09:19:37;;;;;;;;;;;22.80;58.60;;;;;;10326870;28;97012;-61
2023/07/22 09:24:38;;;;;;;;;;;22.80;58.60;;;;;;10330371;28;94488;-61
2023/07/22 09:29:40;;;;;;;;;;;22.70;58.50;;;;;;10330386;28;94439;-61
2023/07/22 09:34:57;;;;;;;;;;;22.70;58.50;;;;;;10312325;28;113982;-61
2023/07/22 09:39:59;;;;;;;;;;;22.70;58.50;;;;;;10329714;28;93505;-61
2023/07/22 09:45:01;;;;;;;;;;;22.70;58.40;;;;;;10329948;28;93389;-61
2023/07/22 09:50:03;;;;;;;;;;;22.70;58.30;;;;;;10328479;28;93787;-60
2023/07/22 09:55:04;;;;;;;;;;;22.60;58.10;;;;;;10329935;28;94157;-61
2023/07/22 10:00:09;;;;;;;;;;;22.60;58.10;;;;;;10311850;28;92790;-61
2023/07/22 10:05:15;;;;;;;;;;;22.60;58.00;;;;;;10330005;28;94399;-60
2023/07/22 10:10:33;;;;;;;;;;;22.60;58.20;;;;;;10326866;28;96887;-61
2023/07/22 10:15:35;;;;;;;;;;;22.60;57.90;;;;;;10328080;28;94566;-61
2023/07/22 10:20:38;;;;;;;;;;;22.60;57.80;;;;;;10328532;28;93420;-61
2023/07/22 10:25:40;;;;;;;;;;;22.60;57.60;;;;;;10328714;28;94394;-61
2023/07/22 10:30:43;;;;;;;;;;;22.60;57.60;;;;;;10328840;28;94433;-61
2023/07/22 10:36:02;;;;;;;;;;;22.60;57.50;;;;;;10327659;28;93596;-61
2023/07/22 10:41:13;;;;;;;;;;;22.60;57.40;;;;;;10331972;28;93568;-61
2023/07/22 10:46:16;;;;;;;;;;;22.60;57.60;;;;;;10336359;28;93783;-62
2023/07/22 10:51:18;;;;;;;;;;;22.60;57.30;;;;;;10316425;28;94120;-61
2023/07/22 10:56:20;;;;;;;;;;;22.60;61.30;;;;;;10334872;28;94420;-61
2023/07/22 11:01:28;;;;;;;;;;;22.80;62.10;;;;;;10315085;28;94918;-61
2023/07/22 11:06:30;;;;;;;;;;;22.90;60.40;;;;;;10334543;28;93509;-61
2023/07/22 11:11:37;;;;;;;;;;;22.90;59.40;;;;;;10334378;28;93401;-61
2023/07/22 11:16:38;;;;;;;;;;;22.90;59.30;;;;;;10334975;28;94634;-61
2023/07/22 11:21:41;;;;;;;;;;;22.90;59.20;;;;;;10334127;28;93535;-61
2023/07/22 11:26:43;;;;;;;;;;;23.00;59.50;;;;;;10335557;28;93800;-65
2023/07/22 11:31:48;;;;;;;;;;;22.90;59.60;;;;;;10333813;28;93443;-65
2023/07/22 11:36:50;;;;;;;;;;;22.90;59.40;;;;;;10335746;28;94140;-65
2023/07/22 11:41:52;;;;;;;;;;;22.90;59.30;;;;;;10333442;28;93718;-65
2023/07/22 11:46:55;;;;;;;;;;;22.90;59.30;;;;;;10316164;28;93409;-65
2023/07/22 11:51:57;;;;;;;;;;;22.90;59.00;;;;;;10300014;28;95855;-64
2023/07/22 11:57:11;;;;;;;;;;;22.80;59.00;;;;;;10291381;28;94824;-65
2023/07/22 12:02:16;;;;;;;;;;;22.80;59.10;;;;;;10292457;28;93390;-65
2023/07/22 12:07:25;;;;;;;;;;;22.80;59.10;;;;;;10291057;28;94168;-61
2023/07/22 12:12:36;;;;;;;;;;;22.80;58.70;;;;;;10291660;28;93480;-61
2023/07/22 12:17:52;;;;;;;;;;;22.80;58.40;;;;;;10291279;28;94448;-61
2023/07/22 12:22:54;;;;;;;;;;;22.80;58.10;;;;;;10273584;28;92960;-60
2023/07/22 12:27:56;;;;;;;;;;;22.80;58.00;;;;;;10292025;28;92521;-61
2023/07/22 12:32:58;;;;;;;;;;;22.80;58.00;;;;;;10273334;28;93721;-60
2023/07/22 12:37:59;;;;;;;;;;;22.80;58.00;;;;;;10290019;28;93724;-61
2023/07/22 12:43:01;;;;;;;;;;;22.80;57.80;;;;;;10287757;28;95832;-60
2023/07/22 12:48:05;;;;;;;;;;;22.80;57.80;;;;;;10289552;28;92974;-61
2023/07/22 12:53:08;;;;;;;;;;;22.80;57.70;;;;;;10290304;28;93584;-61
2023/07/22 12:58:10;;;;;;;;;;;22.80;57.60;;;;;;10291853;28;97047;-60
2023/07/22 13:03:12;;;;;;;;;;;22.80;57.60;;;;;;10246743;28;93820;-60
2023/07/22 13:08:14;;;;;;;;;;;22.80;57.50;;;;;;10249962;28;92606;-61
2023/07/22 13:13:16;;;;;;;;;;;22.80;57.50;;;;;;10250082;28;95702;-60
2023/07/22 13:18:18;;;;;;;;;;;22.80;57.40;;;;;;10249227;28;93664;-60
2023/07/22 13:23:19;;;;;;;;;;;22.80;57.40;;;;;;10249359;28;93975;-61
2023/07/22 13:28:21;;;;;;;;;;;22.80;57.30;;;;;;10248709;28;94438;-60
2023/07/22 13:33:23;;;;;;;;;;;22.80;57.40;;;;;;10245519;28;95889;-60
2023/07/22 13:38:25;;;;;;;;;;;22.80;57.30;;;;;;10247703;28;94424;-61
2023/07/22 13:43:28;;;;;;;;;;;22.80;57.30;;;;;;10248052;28;94340;-60
2023/07/22 13:48:29;;;;;;;;;;;22.80;57.30;;;;;;10247596;28;94589;-60
2023/07/22 13:53:31;;;;;;;;;;;22.80;57.30;;;;;;10248304;28;92725;-60
2023/07/22 13:58:33;;;;;;;;;;;22.80;58.40;;;;;;10249051;28;93842;-60
2023/07/22 14:03:35;;;;;;;;;;;22.70;57.20;;;;;;10248038;28;93982;-60
2023/07/22 14:08:37;;;;;;;;;;;22.80;57.30;;;;;;10249299;28;91798;-60
2023/07/22 14:13:38;;;;;;;;;;;22.80;57.30;;;;;;10248115;28;93877;-59
2023/07/22 14:18:40;;;;;;;;;;;22.70;57.10;;;;;;10248588;28;94454;-60
2023/07/22 14:23:44;;;;;;;;;;;22.70;57.20;;;;;;10245124;28;96467;-60
2023/07/22 14:28:46;;;;;;;;;;;22.70;57.30;;;;;;10247012;28;93482;-60
2023/07/22 14:33:48;;;;;;;;;;;22.70;57.20;;;;;;10229366;28;93434;-60
2023/07/22 14:38:49;;;;;;;;;;;22.70;57.20;;;;;;10246333;28;93491;-60
2023/07/22 14:43:51;;;;;;;;;;;22.70;57.20;;;;;;10247760;28;94453;-60
2023/07/22 14:48:53;;;;;;;;;;;22.70;57.10;;;;;;10229094;28;94517;-60
2023/07/22 14:53:55;;;;;;;;;;;22.60;56.90;;;;;;10247330;28;93395;-60
2023/07/22 14:58:57;;;;;;;;;;;22.60;56.90;;;;;;10248830;28;93033;-60
2023/07/22 15:03:58;;;;;;;;;;;22.70;56.90;;;;;;10246633;28;94457;-60
2023/07/22 15:09:01;;;;;;;;;;;22.70;56.80;;;;;;10228974;28;94434;-60
2023/07/22 15:14:03;;;;;;;;;;;22.60;56.70;;;;;;10241979;28;96183;-60
2023/07/22 15:19:05;;;;;;;;;;;22.60;56.60;;;;;;10228808;28;94432;-60
2023/07/22 15:24:07;;;;;;;;;;;22.60;56.70;;;;;;10228805;28;93556;-60
2023/07/22 15:29:08;;;;;;;;;;;22.70;56.70;;;;;;10250297;28;94126;-60
2023/07/22 15:34:10;;;;;;;;;;;22.60;56.60;;;;;;10253006;28;94116;-60
2023/07/22 15:39:12;;;;;;;;;;;22.60;56.50;;;;;;10253141;28;94038;-60
2023/07/22 15:44:13;;;;;;;;;;;22.60;56.50;;;;;;10253233;28;93475;-60
2023/07/22 15:49:16;;;;;;;;;;;22.60;56.50;;;;;;10254455;28;93805;-59
2023/07/22 15:54:19;;;;;;;;;;;22.60;56.50;;;;;;10218533;28;94362;-60
2023/07/22 15:59:21;;;;;;;;;;;22.60;56.40;;;;;;10251932;28;93551;-60
2023/07/22 16:04:22;;;;;;;;;;;22.60;56.40;;;;;;10230847;28;95772;-60
2023/07/22 16:09:24;;;;;;;;;;;22.60;56.40;;;;;;10251268;28;93494;-60
2023/07/22 16:14:26;;;;;;;;;;;22.70;56.40;;;;;;10267150;28;94416;-60
2023/07/22 16:19:27;;;;;;;;;;;22.60;56.40;;;;;;10251801;28;94429;-60
2023/07/22 16:24:29;;;;;;;;;;;22.60;56.40;;;;;;10251853;28;94912;-60
2023/07/22 16:29:32;;;;;;;;;;;22.60;56.40;;;;;;10252610;28;94381;-60
2023/07/22 16:34:34;;;;;;;;;;;22.60;56.50;;;;;;10250663;28;94438;-60
2023/07/22 16:39:35;;;;;;;;;;;22.60;56.40;;;;;;10251781;28;92691;-59
2023/07/22 16:44:37;;;;;;;;;;;22.60;56.40;;;;;;10250807;28;94662;-60
2023/07/22 16:49:39;;;;;;;;;;;22.60;56.40;;;;;;10289021;28;93152;-60
2023/07/22 16:54:40;;;;;;;;;;;22.60;56.40;;;;;;10329790;28;96787;-60
2023/07/22 16:59:42;;;;;;;;;;;22.60;56.40;;;;;;10331788;28;93363;-60
2023/07/22 17:04:44;;;;;;;;;;;22.50;56.30;;;;;;10332397;28;94649;-60
2023/07/22 17:09:46;;;;;;;;;;;22.50;56.40;;;;;;10330682;28;93368;-60
2023/07/22 17:14:48;;;;;;;;;;;22.50;56.50;;;;;;10330053;28;93680;-59
2023/07/22 17:19:49;;;;;;;;;;;22.50;56.50;;;;;;10331925;28;94552;-60
2023/07/22 17:24:51;;;;;;;;;;;22.50;56.50;;;;;;10330335;28;93505;-60
2023/07/22 17:29:53;;;;;;;;;;;22.40;56.60;;;;;;10330251;28;92749;-59
2023/07/22 17:34:55;;;;;;;;;;;22.40;56.70;;;;;;10312640;28;94243;-60
2023/07/22 17:39:58;;;;;;;;;;;22.40;56.80;;;;;;10330962;28;94430;-60
2023/07/22 17:45:00;;;;;;;;;;;22.40;56.70;;;;;;10327967;28;95968;-61
2023/07/22 17:50:02;;;;;;;;;;;22.40;56.70;;;;;;10329238;28;92526;-59
2023/07/22 17:55:04;;;;;;;;;;;22.40;56.80;;;;;;10329003;28;93381;-60
2023/07/22 18:00:06;;;;;;;;;;;22.40;56.90;;;;;;10331019;28;94050;-60
2023/07/22 18:05:07;;;;;;;;;;;22.40;57.00;;;;;;10327857;28;93396;-60
2023/07/22 18:10:09;;;;;;;;;;;22.40;57.00;;;;;;10328522;28;95035;-59
2023/07/22 18:15:11;;;;;;;;;;;22.30;57.10;;;;;;10307471;28;94526;-61
2023/07/22 18:20:12;;;;;;;;;;;22.30;57.10;;;;;;10271416;28;91808;-64
2023/07/22 18:25:14;;;;;;;;;;;22.30;57.20;;;;;;10287211;28;93435;-66
2023/07/22 18:30:16;;;;;;;;;;;22.40;58.80;;;;;;10287720;28;93396;-64
2023/07/22 18:35:18;;;;;;;;;;;22.40;58.30;;;;;;10285300;28;96843;-64
2023/07/22 18:40:20;;;;;;;;;;;22.40;57.90;;;;;;10286391;28;93517;-63
2023/07/22 18:45:22;;;;;;;;;;;22.50;58.00;;;;;;10269599;28;94833;-60
2023/07/22 18:50:23;;;;;;;;;;;22.50;58.10;;;;;;10261314;28;94434;-60
2023/07/22 18:55:25;;;;;;;;;;;22.50;58.20;;;;;;10229089;28;93835;-61
2023/07/22 19:00:28;;;;;;;;;;;22.50;58.30;;;;;;10230181;28;93242;-61
2023/07/22 19:05:29;;;;;;;;;;;22.50;58.50;;;;;;10253346;28;94384;-62
2023/07/22 19:10:31;;;;;;;;;;;22.50;58.50;;;;;;10235642;28;92854;-61
2023/07/22 19:15:33;;;;;;;;;;;22.50;58.90;;;;;;10253991;28;94722;-61
2023/07/22 19:20:34;;;;;;;;;;;22.40;59.60;;;;;;10251840;28;93386;-61
2023/07/22 19:25:37;;;;;;;;;;;22.40;59.50;;;;;;10233278;28;95802;-61
2023/07/22 19:30:39;;;;;;;;;;;22.50;59.50;;;;;;10253704;28;92811;-62
2023/07/22 19:35:40;;;;;;;;;;;22.50;59.50;;;;;;10235742;28;93485;-61
2023/07/22 19:40:42;;;;;;;;;;;22.50;59.50;;;;;;10253825;28;94457;-61
2023/07/22 19:45:44;;;;;;;;;;;22.50;59.60;;;;;;10234885;28;94720;-62
2023/07/22 19:50:46;;;;;;;;;;;22.50;59.70;;;;;;10252123;28;94443;-61
2023/07/22 19:55:48;;;;;;;;;;;22.50;59.70;;;;;;10252542;28;94428;-62
2023/07/22 20:00:50;;;;;;;;;;;22.50;59.70;;;;;;10252452;28;93301;-61
2023/07/22 20:05:52;;;;;;;;;;;22.40;59.60;;;;;;10251626;28;93434;-61
2023/07/22 20:10:54;;;;;;;;;;;22.40;59.70;;;;;;10233100;28;94193;-61
2023/07/22 20:15:56;;;;;;;;;;;22.40;59.60;;;;;;10247436;28;95849;-61
2023/07/22 20:20:59;;;;;;;;;;;22.40;59.60;;;;;;10233623;28;94575;-61
2023/07/22 20:26:00;;;;;;;;;;;22.40;59.60;;;;;;10233071;28;94396;-61
2023/07/22 20:31:02;;;;;;;;;;;22.40;59.60;;;;;;10249813;28;93445;-62
2023/07/22 20:36:04;;;;;;;;;;;22.40;59.50;;;;;;10233533;28;94454;-61
2023/07/22 20:41:06;;;;;;;;;;;22.40;59.50;;;;;;10250076;28;93490;-61
2023/07/22 20:46:08;;;;;;;;;;;22.40;59.50;;;;;;10250271;28;93570;-62
2023/07/22 20:51:13;;;;;;;;;;;22.40;59.40;;;;;;10250292;28;92704;-59
2023/07/22 20:56:17;;;;;;;;;;;22.40;59.40;;;;;;10249321;28;93446;-61
2023/07/22 21:01:19;;;;;;;;;;;22.50;59.50;;;;;;10232341;28;92810;-60
2023/07/22 21:06:21;;;;;;;;;;;22.40;59.80;;;;;;10229516;28;96000;-62
2023/07/22 21:11:22;;;;;;;;;;;22.50;59.80;;;;;;10249461;28;93465;-61
2023/07/22 21:16:24;;;;;;;;;;;22.50;59.40;;;;;;10249608;28;94456;-62
2023/07/22 21:21:26;;;;;;;;;;;22.50;59.40;;;;;;10249886;28;94006;-61
2023/07/22 21:26:28;;;;;;;;;;;22.50;59.30;;;;;;10247945;28;92972;-61
2023/07/22 21:31:30;;;;;;;;;;;22.40;59.20;;;;;;10231670;28;93479;-61
2023/07/22 21:36:32;;;;;;;;;;;22.40;59.10;;;;;;10248923;28;94953;-61
2023/07/22 21:41:34;;;;;;;;;;;22.40;59.10;;;;;;10230999;28;92855;-61
2023/07/22 21:46:35;;;;;;;;;;;22.40;59.10;;;;;;10231743;28;93502;-60
2023/07/22 21:51:43;;;;;;;;;;;22.40;59.00;;;;;;10217452;28;93052;-61
2023/07/22 21:56:44;;;;;;;;;;;22.30;58.90;;;;;;10245294;28;97333;-61
2023/07/22 22:01:47;;;;;;;;;;;22.40;59.00;;;;;;10248074;28;93545;-60
2023/07/22 22:06:48;;;;;;;;;;;22.30;58.80;;;;;;10244207;28;94600;-61
2023/07/22 22:11:50;;;;;;;;;;;22.30;58.70;;;;;;10247826;28;93037;-62
2023/07/22 22:16:52;;;;;;;;;;;22.30;58.80;;;;;;10248283;28;94396;-61
2023/07/22 22:21:54;;;;;;;;;;;22.30;58.70;;;;;;10247381;28;93668;-61
2023/07/22 22:26:56;;;;;;;;;;;22.30;58.70;;;;;;10247048;28;93509;-61
2023/07/22 22:31:58;;;;;;;;;;;22.30;58.70;;;;;;10247439;28;93672;-61
2023/07/22 22:36:59;;;;;;;;;;;22.30;58.70;;;;;;10244155;28;93486;-61
2023/07/22 22:42:01;;;;;;;;;;;22.30;58.60;;;;;;10246900;28;93362;-61
2023/07/22 22:47:03;;;;;;;;;;;22.30;58.50;;;;;;10243353;28;95942;-61
2023/07/22 22:52:05;;;;;;;;;;;22.30;58.40;;;;;;10320132;28;92724;-61
2023/07/22 22:57:06;;;;;;;;;;;22.30;58.40;;;;;;10328045;28;94324;-61
2023/07/22 23:02:08;;;;;;;;;;;22.30;58.40;;;;;;10328696;28;94383;-61
2023/07/22 23:07:10;;;;;;;;;;;22.30;58.40;;;;;;10328381;28;93431;-61
2023/07/22 23:12:11;;;;;;;;;;;22.30;58.40;;;;;;10327451;28;94406;-61
2023/07/22 23:17:13;;;;;;;;;;;22.30;58.40;;;;;;10327218;28;94604;-61
2023/07/22 23:22:15;;;;;;;;;;;22.30;58.40;;;;;;10328343;28;93071;-60
2023/07/22 23:27:17;;;;;;;;;;;22.30;58.40;;;;;;10325635;28;93241;-60
2023/07/22 23:32:19;;;;;;;;;;;22.30;58.40;;;;;;10309043;28;94434;-60
2023/07/22 23:37:21;;;;;;;;;;;22.30;58.40;;;;;;10324271;28;96107;-59
2023/07/22 23:42:23;;;;;;;;;;;22.30;58.40;;;;;;10309327;28;93308;-61
2023/07/22 23:47:24;;;;;;;;;;;22.30;58.40;;;;;;10308996;28;92891;-61
2023/07/22 23:52:26;;;;;;;;;;;22.30;58.40;;;;;;10315900;28;94545;-60
2023/07/22 23:57:28;;;;;;;;;;;22.30;58.40;;;;;;10332875;28;93436;-61
